Time;durP1;ratioP1;P1;durP2;ratioP2;P2;SDS_P1;SDS_P2;PMS_P1;PMS_P2;Temp;Humidity;BMP_temperature;BMP_pressure;BME280_temperature;BME280_humidity;BME280_pressure;Samples;Min_cycle;Max_cycle;Signal;HPM_P1;HPM_P2
2021/06/07 00:01:52;;;;;;;3.33;1.70;;;13.40;99.90;;;;;;5173355;27;20116;-64
2021/06/07 00:04:19;;;;;;;3.40;2.47;;;13.40;99.90;;;;;;5173418;27;20148;-60
2021/06/07 00:06:47;;;;;;;2.93;2.10;;;13.30;99.90;;;;;;5173603;27;20517;-61
2021/06/07 00:09:16;;;;;;;2.80;1.63;;;13.30;99.90;;;;;;5173327;27;20109;-62
2021/06/07 00:11:44;;;;;;;2.30;1.57;;;13.30;99.90;;;;;;5173431;27;20128;-63
2021/06/07 00:14:10;;;;;;;2.83;1.77;;;13.30;99.90;;;;;;5174091;27;20124;-62
2021/06/07 00:16:37;;;;;;;7.43;2.20;;;13.20;99.90;;;;;;5217826;27;20135;-61
2021/06/07 00:19:09;;;;;;;3.83;2.17;;;13.20;99.90;;;;;;5259995;27;20147;-61
2021/06/07 00:21:37;;;;;;;7.77;1.83;;;13.20;99.90;;;;;;5260491;27;20147;-61
2021/06/07 00:24:08;;;;;;;3.10;2.10;;;13.10;99.90;;;;;;5257495;27;80399;-61
2021/06/07 00:26:35;;;;;;;2.57;1.80;;;13.10;99.90;;;;;;5263177;27;20126;-60
2021/06/07 00:29:02;;;;;;;2.47;1.57;;;13.10;99.90;;;;;;5261226;27;20120;-62
2021/06/07 00:31:29;;;;;;;3.00;1.67;;;13.10;99.90;;;;;;5260241;27;20113;-61
2021/06/07 00:33:55;;;;;;;4.17;2.30;;;13.00;99.90;;;;;;5260718;27;20150;-63
2021/06/07 00:36:22;;;;;;;4.83;2.37;;;13.00;99.90;;;;;;5262751;27;20541;-61
2021/06/07 00:38:49;;;;;;;3.53;2.00;;;12.90;99.90;;;;;;5261448;27;20138;-63
2021/06/07 00:41:18;;;;;;;4.20;2.17;;;12.90;99.90;;;;;;5260501;27;20126;-62
2021/06/07 00:43:48;;;;;;;2.60;2.13;;;12.90;99.90;;;;;;5260472;27;20107;-61
2021/06/07 00:46:14;;;;;;;2.30;2.10;;;12.90;99.90;;;;;;5260591;27;20181;-61
2021/06/07 00:48:42;;;;;;;2.17;1.97;;;12.80;99.90;;;;;;5262259;27;20130;-62
2021/06/07 00:51:10;;;;;;;2.17;1.77;;;12.80;99.90;;;;;;5260606;27;20151;-63
2021/06/07 00:53:37;;;;;;;3.70;2.20;;;12.80;99.90;;;;;;5261262;27;20465;-63
2021/06/07 00:56:06;;;;;;;2.47;2.20;;;12.70;99.90;;;;;;5260519;27;20128;-62
2021/06/07 00:58:39;;;;;;;2.83;2.20;;;12.70;99.90;;;;;;5260700;27;20107;-61
2021/06/07 01:01:08;;;;;;;6.87;2.60;;;12.70;99.90;;;;;;5260521;27;20107;-60
2021/06/07 01:03:35;;;;;;;3.83;2.37;;;12.70;99.90;;;;;;5260539;27;20107;-63
2021/06/07 01:06:03;;;;;;;5.53;2.27;;;12.70;99.90;;;;;;5261883;27;20139;-61
2021/06/07 01:08:29;;;;;;;4.47;2.47;;;12.70;99.90;;;;;;5262135;27;20122;-61
2021/06/07 01:10:56;;;;;;;3.93;2.60;;;12.70;99.90;;;;;;5262797;27;20161;-64
2021/06/07 01:13:24;;;;;;;3.40;2.63;;;12.60;99.90;;;;;;5260786;27;20542;-63
2021/06/07 01:15:54;;;;;;;3.57;2.43;;;12.60;99.90;;;;;;5260738;27;20139;-64
2021/06/07 01:18:21;;;;;;;4.27;2.47;;;12.60;99.90;;;;;;5260418;27;20111;-60
2021/06/07 01:20:48;;;;;;;6.57;2.40;;;12.60;99.90;;;;;;5261227;27;20122;-60
2021/06/07 01:23:19;;;;;;;3.90;2.50;;;12.60;99.90;;;;;;5259962;27;20145;-62
2021/06/07 01:25:46;;;;;;;4.37;2.40;;;12.60;99.90;;;;;;5260921;27;20107;-61
2021/06/07 01:28:15;;;;;;;3.00;2.50;;;12.50;99.90;;;;;;5260170;27;20146;-62
2021/06/07 01:30:44;;;;;;;3.60;2.17;;;12.50;99.90;;;;;;5260353;27;20451;-61
2021/06/07 01:33:15;;;;;;;5.53;2.70;;;12.50;99.90;;;;;;5259812;27;20133;-62
2021/06/07 01:35:42;;;;;;;4.57;2.23;;;12.40;99.90;;;;;;5261029;27;20154;-61
2021/06/07 01:38:09;;;;;;;2.53;2.30;;;12.40;99.90;;;;;;5260835;27;20107;-61
2021/06/07 01:40:39;;;;;;;4.70;2.50;;;12.40;99.90;;;;;;5260136;27;20133;-61
2021/06/07 01:43:06;;;;;;;6.13;2.50;;;12.40;99.90;;;;;;5259770;27;20130;-62
2021/06/07 01:45:34;;;;;;;3.73;2.30;;;12.30;99.90;;;;;;5260658;27;20487;-62
2021/06/07 01:48:04;;;;;;;4.47;2.67;;;12.30;99.90;;;;;;5259961;27;20174;-61
2021/06/07 01:50:31;;;;;;;4.10;2.27;;;12.30;99.90;;;;;;5260218;27;20147;-62
2021/06/07 01:52:57;;;;;;;3.07;2.73;;;12.30;99.90;;;;;;5259717;27;20239;-62
2021/06/07 01:55:29;;;;;;;3.73;2.80;;;12.30;99.90;;;;;;5259650;27;20190;-61
2021/06/07 01:57:57;;;;;;;3.90;2.63;;;12.30;99.90;;;;;;5260071;27;20126;-60
2021/06/07 02:00:26;;;;;;;3.40;3.07;;;12.20;99.90;;;;;;5259923;27;20107;-61
2021/06/07 02:02:52;;;;;;;4.60;3.00;;;12.20;99.90;;;;;;5260825;27;20146;-63
2021/06/07 02:05:23;;;;;;;4.80;2.23;;;12.10;99.90;;;;;;5259858;27;20597;-59
2021/06/07 02:07:50;;;;;;;3.77;2.40;;;12.10;99.90;;;;;;5260026;27;20117;-62
2021/06/07 02:10:17;;;;;;;4.20;2.83;;;12.10;99.90;;;;;;5259547;27;20111;-61
2021/06/07 02:12:44;;;;;;;3.37;2.97;;;12.10;99.90;;;;;;5261729;27;20107;-64
2021/06/07 02:15:12;;;;;;;5.03;2.77;;;12.10;99.90;;;;;;5260623;27;20149;-61
2021/06/07 02:17:39;;;;;;;5.57;3.07;;;12.10;99.90;;;;;;5260098;27;20130;-61
2021/06/07 02:20:08;;;;;;;6.83;2.83;;;12.00;99.90;;;;;;5260027;27;20122;-62
2021/06/07 02:22:35;;;;;;;3.30;2.70;;;12.00;99.90;;;;;;5259657;27;20501;-61
2021/06/07 02:25:05;;;;;;;4.17;2.40;;;12.00;99.90;;;;;;5259989;27;20775;-61
2021/06/07 02:27:34;;;;;;;5.00;2.60;;;12.00;99.90;;;;;;5259745;27;20159;-64
2021/06/07 02:30:03;;;;;;;4.37;2.77;;;12.00;99.90;;;;;;5260117;27;20146;-63
2021/06/07 02:32:31;;;;;;;2.60;2.40;;;12.00;99.90;;;;;;5260075;27;20153;-61
2021/06/07 02:34:58;;;;;;;4.83;3.43;;;12.00;99.90;;;;;;5260273;27;20161;-61
2021/06/07 02:37:24;;;;;;;4.00;2.60;;;11.90;99.90;;;;;;5260262;27;20122;-59
2021/06/07 02:39:51;;;;;;;3.50;3.10;;;11.90;99.90;;;;;;5260206;27;20123;-62
2021/06/07 02:42:17;;;;;;;4.50;3.20;;;11.90;99.90;;;;;;5259742;27;20144;-61
2021/06/07 02:44:47;;;;;;;5.63;2.93;;;11.90;99.90;;;;;;5260527;27;20617;-61
2021/06/07 02:47:13;;;;;;;3.67;3.10;;;11.90;99.90;;;;;;5260059;27;20508;-62
2021/06/07 02:49:41;;;;;;;4.53;2.70;;;11.80;99.90;;;;;;5259945;27;20170;-60
2021/06/07 02:52:08;;;;;;;4.47;3.30;;;11.80;99.90;;;;;;5259714;27;20161;-62
2021/06/07 02:54:34;;;;;;;4.83;3.00;;;11.80;99.90;;;;;;5261857;27;20122;-61
2021/06/07 02:57:04;;;;;;;4.37;3.00;;;11.80;99.90;;;;;;5260417;27;20107;-61
2021/06/07 02:59:30;;;;;;;4.30;2.63;;;11.80;99.90;;;;;;5260086;27;20115;-61
2021/06/07 03:01:56;;;;;;;5.73;3.10;;;11.80;99.90;;;;;;5260153;27;20215;-61
2021/06/07 03:04:23;;;;;;;6.70;2.87;;;11.70;99.90;;;;;;5260239;27;20108;-61
2021/06/07 03:06:52;;;;;;;4.50;3.00;;;11.70;99.90;;;;;;5261700;27;20116;-62
2021/06/07 03:09:18;;;;;;;3.83;2.80;;;11.70;99.90;;;;;;5261454;27;20126;-62
2021/06/07 03:11:48;;;;;;;3.50;2.97;;;11.70;99.90;;;;;;5261369;27;20206;-62
2021/06/07 03:14:15;;;;;;;5.07;3.57;;;11.60;99.90;;;;;;5261545;27;20154;-62
2021/06/07 03:16:41;;;;;;;3.40;2.97;;;11.60;99.90;;;;;;5260474;27;20122;-60
2021/06/07 03:19:08;;;;;;;5.10;2.93;;;11.60;99.90;;;;;;5260857;27;20135;-60
2021/06/07 03:21:35;;;;;;;3.00;2.70;;;11.60;99.90;;;;;;5261088;27;20111;-60
2021/06/07 03:24:06;;;;;;;3.40;3.10;;;11.60;99.90;;;;;;5260587;27;20683;-62
2021/06/07 03:26:32;;;;;;;4.10;2.73;;;11.60;99.90;;;;;;5261802;27;20165;-60
2021/06/07 03:28:59;;;;;;;4.53;3.00;;;11.60;99.90;;;;;;5261132;27;20131;-60
2021/06/07 03:31:25;;;;;;;4.77;3.20;;;11.50;99.90;;;;;;5261487;27;20133;-62
2021/06/07 03:33:51;;;;;;;3.43;2.60;;;11.60;99.90;;;;;;5263112;27;20514;-60
2021/06/07 03:36:18;;;;;;;3.80;3.03;;;11.60;99.90;;;;;;5261203;27;20121;-60
2021/06/07 03:38:45;;;;;;;3.07;2.77;;;11.60;99.90;;;;;;5261148;27;20122;-62
2021/06/07 03:41:12;;;;;;;3.40;3.10;;;11.60;99.90;;;;;;5261165;27;20118;-61
2021/06/07 03:43:39;;;;;;;3.47;2.97;;;11.60;99.90;;;;;;5262176;27;20111;-61
2021/06/07 03:46:06;;;;;;;4.47;3.37;;;11.60;99.90;;;;;;5261145;27;20458;-60
2021/06/07 03:48:36;;;;;;;5.20;3.43;;;11.60;99.90;;;;;;5261376;27;20482;-61
2021/06/07 03:51:04;;;;;;;4.30;2.73;;;11.60;99.90;;;;;;5262393;27;20154;-63
2021/06/07 03:53:30;;;;;;;5.07;2.93;;;11.60;99.90;;;;;;5261199;27;20136;-61
2021/06/07 03:55:56;;;;;;;3.70;2.90;;;11.60;99.90;;;;;;5262267;27;20157;-60
2021/06/07 03:58:26;;;;;;;4.10;3.57;;;11.60;99.90;;;;;;5262703;27;20147;-60
2021/06/07 04:00:56;;;;;;;3.80;3.40;;;11.60;99.90;;;;;;5261704;27;20138;-60
2021/06/07 04:03:22;;;;;;;6.90;4.13;;;11.70;99.90;;;;;;5261284;27;20495;-61
2021/06/07 04:05:49;;;;;;;4.33;3.63;;;11.70;99.90;;;;;;5260443;27;20562;-60
2021/06/07 04:08:15;;;;;;;4.50;3.50;;;11.70;99.90;;;;;;5260660;27;20122;-60
2021/06/07 04:10:47;;;;;;;6.67;3.40;;;11.80;99.90;;;;;;5259522;27;20536;-60
2021/06/07 04:13:24;;;;;;;8.20;4.57;;;11.80;99.90;;;;;;5258036;27;20538;-61
2021/06/07 04:15:56;;;;;;;4.80;3.40;;;11.90;99.90;;;;;;5255775;27;20115;-61
2021/06/07 04:18:23;;;;;;;3.97;3.13;;;11.90;99.90;;;;;;5258379;27;20155;-60
2021/06/07 04:20:49;;;;;;;3.97;2.57;;;11.90;99.90;;;;;;5260813;27;20149;-61
2021/06/07 04:23:15;;;;;;;5.70;3.20;;;11.90;99.90;;;;;;5260367;27;20143;-60
2021/06/07 04:25:42;;;;;;;3.83;3.03;;;12.00;99.90;;;;;;5261168;27;20108;-60
2021/06/07 04:28:09;;;;;;;3.60;2.87;;;12.10;99.90;;;;;;5261065;27;20107;-60
2021/06/07 04:30:36;;;;;;;3.83;2.67;;;12.20;99.90;;;;;;5261737;27;20127;-60
2021/06/07 04:33:03;;;;;;;4.87;3.10;;;12.30;99.90;;;;;;5260621;27;20131;-60
2021/06/07 04:35:32;;;;;;;6.63;2.37;;;12.40;99.90;;;;;;5261529;27;20122;-61
2021/06/07 04:37:58;;;;;;;7.33;2.70;;;12.50;99.90;;;;;;5261083;27;20151;-60
2021/06/07 04:40:27;;;;;;;3.47;2.50;;;12.60;99.90;;;;;;5260448;27;20201;-62
2021/06/07 04:42:54;;;;;;;4.00;2.97;;;12.80;99.90;;;;;;5260730;27;20112;-63
2021/06/07 04:45:22;;;;;;;4.80;2.40;;;13.20;99.90;;;;;;5260239;27;20118;-62
2021/06/07 04:47:50;;;;;;;5.13;3.03;;;13.40;99.90;;;;;;5261835;27;20534;-62
2021/06/07 04:50:19;;;;;;;5.60;2.97;;;13.50;99.90;;;;;;5260444;27;20117;-62
2021/06/07 04:52:59;;;;;;;5.27;4.10;;;13.50;99.90;;;;;;5260823;27;20131;-61
2021/06/07 04:55:29;;;;;;;5.00;3.43;;;13.50;99.90;;;;;;5260435;27;20114;-61
2021/06/07 04:57:56;;;;;;;7.57;4.00;;;13.40;99.90;;;;;;5261370;27;20147;-61
2021/06/07 05:00:25;;;;;;;5.57;3.90;;;13.40;99.90;;;;;;5261491;27;20156;-60
2021/06/07 05:02:53;;;;;;;5.47;3.60;;;13.40;99.90;;;;;;5262848;27;20108;-60
2021/06/07 05:05:20;;;;;;;5.23;3.37;;;13.60;99.90;;;;;;5260397;27;20482;-62
2021/06/07 05:07:47;;;;;;;3.77;3.00;;;14.40;99.90;;;;;;5259556;27;20111;-63
2021/06/07 05:10:14;;;;;;;4.77;3.20;;;14.60;99.90;;;;;;5261975;27;20157;-62
2021/06/07 05:12:41;;;;;;;4.77;3.00;;;14.60;99.90;;;;;;5260671;27;20134;-60
2021/06/07 05:15:15;;;;;;;3.60;2.93;;;14.40;99.90;;;;;;5259935;27;20117;-61
2021/06/07 05:17:41;;;;;;;5.50;2.93;;;14.40;99.90;;;;;;5261304;27;20215;-61
2021/06/07 05:20:11;;;;;;;4.43;2.93;;;14.40;99.90;;;;;;5260557;27;20107;-59
2021/06/07 05:22:38;;;;;;;5.53;3.13;;;14.50;99.90;;;;;;5261620;27;20446;-60
2021/06/07 05:25:05;;;;;;;4.40;2.43;;;15.40;99.90;;;;;;5259830;27;20099;-59
2021/06/07 05:27:32;;;;;;;3.33;2.30;;;16.00;99.90;;;;;;5260963;27;20127;-60
2021/06/07 05:30:00;;;;;;;4.23;1.80;;;16.30;99.90;;;;;;5261084;27;20118;-60
2021/06/07 05:32:26;;;;;;;4.10;2.10;;;16.30;98.30;;;;;;5261744;27;20207;-60
2021/06/07 05:34:53;;;;;;;2.00;1.60;;;16.20;97.60;;;;;;5260496;27;20153;-60
2021/06/07 05:37:20;;;;;;;5.70;2.10;;;16.10;98.60;;;;;;5260484;27;20130;-60
2021/06/07 05:39:48;;;;;;;4.30;2.07;;;16.20;97.50;;;;;;5260960;27;20121;-60
2021/06/07 05:42:17;;;;;;;1.93;1.73;;;17.30;97.00;;;;;;5260862;27;20115;-60
2021/06/07 05:44:43;;;;;;;2.47;1.57;;;22.50;90.70;;;;;;5260752;27;20170;-60
2021/06/07 05:47:10;;;;;;;1.93;1.07;;;27.90;72.70;;;;;;5261072;27;20532;-61
2021/06/07 05:49:38;;;;;;;3.23;1.17;;;30.70;57.80;;;;;;5259927;27;20125;-61
2021/06/07 05:52:06;;;;;;;2.17;1.20;;;31.70;51.50;;;;;;5260438;27;20130;-61
2021/06/07 05:54:34;;;;;;;2.70;1.20;;;29.60;50.50;;;;;;5260435;27;20148;-63
2021/06/07 05:57:01;;;;;;;1.97;1.27;;;26.60;55.00;;;;;;5259644;27;20125;-60
2021/06/07 05:59:28;;;;;;;1.63;1.13;;;24.00;59.90;;;;;;5260778;27;20146;-60
2021/06/07 06:01:55;;;;;;;1.83;1.00;;;22.10;65.20;;;;;;5260825;27;20512;-60
2021/06/07 06:04:22;;;;;;;1.73;1.00;;;20.70;69.90;;;;;;5260784;27;20107;-60
2021/06/07 06:06:48;;;;;;;4.93;1.20;;;19.60;73.90;;;;;;5261042;27;20597;-60
2021/06/07 06:09:14;;;;;;;1.37;1.10;;;19.00;80.40;;;;;;5262677;27;20107;-59
2021/06/07 06:11:42;;;;;;;4.87;1.40;;;18.60;83.10;;;;;;5260574;27;20131;-61
2021/06/07 06:14:08;;;;;;;0.80;0.80;;;18.20;85.00;;;;;;5260754;27;20115;-60
2021/06/07 06:16:35;;;;;;;4.27;1.27;;;17.90;86.40;;;;;;5259836;27;20118;-60
2021/06/07 06:19:02;;;;;;;5.83;1.20;;;17.70;88.90;;;;;;5260715;27;20122;-60
2021/06/07 06:21:29;;;;;;;4.83;1.60;;;17.50;90.10;;;;;;5263107;27;20120;-59
2021/06/07 06:23:56;;;;;;;3.93;1.50;;;17.40;91.10;;;;;;5260180;27;20147;-60
2021/06/07 06:26:23;;;;;;;3.97;1.60;;;17.40;91.60;;;;;;5260771;27;20106;-59
2021/06/07 06:28:51;;;;;;;2.87;1.30;;;17.30;91.20;;;;;;5263029;27;20549;-60
2021/06/07 06:31:17;;;;;;;5.30;1.77;;;17.20;90.50;;;;;;5260028;27;20442;-60
2021/06/07 06:33:44;;;;;;;2.97;1.63;;;17.10;91.80;;;;;;5260462;27;20142;-60
2021/06/07 06:36:10;;;;;;;3.30;1.77;;;17.00;91.40;;;;;;5260707;27;20132;-60
2021/06/07 06:38:37;;;;;;;3.13;1.70;;;17.00;91.70;;;;;;5260030;27;20157;-60
2021/06/07 06:41:07;;;;;;;5.33;1.60;;;17.00;91.20;;;;;;5262535;27;20186;-60
2021/06/07 06:43:34;;;;;;;3.80;1.53;;;17.10;92.20;;;;;;5260306;27;20135;-60
2021/06/07 06:46:01;;;;;;;2.63;1.87;;;17.10;92.10;;;;;;5260597;27;20157;-60
2021/06/07 06:48:28;;;;;;;2.27;1.37;;;17.20;92.10;;;;;;5262560;27;20107;-60
2021/06/07 06:50:55;;;;;;;2.13;1.20;;;17.20;92.10;;;;;;5260436;27;20127;-59
2021/06/07 06:53:23;;;;;;;3.87;1.00;;;17.20;91.70;;;;;;5260603;27;20107;-59
2021/06/07 06:55:50;;;;;;;2.67;1.20;;;17.40;90.90;;;;;;5261739;27;20569;-60
2021/06/07 06:58:17;;;;;;;2.67;1.40;;;17.40;90.50;;;;;;5261132;27;20106;-59
2021/06/07 07:00:44;;;;;;;2.73;1.00;;;17.50;88.00;;;;;;5259955;27;20143;-59
2021/06/07 07:03:13;;;;;;;3.73;1.10;;;17.50;89.40;;;;;;5260321;27;20107;-60
2021/06/07 07:05:44;;;;;;;4.07;1.40;;;17.60;90.30;;;;;;5260432;27;20116;-60
2021/06/07 07:08:12;;;;;;;1.70;0.90;;;17.60;91.50;;;;;;5262760;27;20416;-61
2021/06/07 07:10:41;;;;;;;2.73;1.30;;;17.70;90.50;;;;;;5260203;27;20126;-61
2021/06/07 07:13:07;;;;;;;2.93;1.10;;;18.10;90.70;;;;;;5260950;27;20111;-59
2021/06/07 07:15:34;;;;;;;2.67;1.00;;;19.10;87.80;;;;;;5259663;27;20146;-60
2021/06/07 07:18:01;;;;;;;2.63;0.80;;;19.90;83.80;;;;;;5260295;27;20107;-60
2021/06/07 07:20:29;;;;;;;1.30;0.90;;;19.80;81.90;;;;;;5260936;27;20520;-60
2021/06/07 07:22:55;;;;;;;0.80;0.67;;;19.50;82.70;;;;;;5260423;27;20128;-60
2021/06/07 07:25:22;;;;;;;2.37;0.50;;;21.10;80.80;;;;;;5259959;27;20119;-60
2021/06/07 07:27:48;;;;;;;2.70;0.80;;;24.70;70.30;;;;;;5260172;27;20110;-60
2021/06/07 07:30:18;;;;;;;5.27;0.93;;;27.20;59.50;;;;;;5261331;27;20520;-61
2021/06/07 07:32:46;;;;;;;2.47;1.00;;;27.30;55.50;;;;;;5260212;27;20123;-60
2021/06/07 07:35:13;;;;;;;1.63;0.80;;;27.20;54.30;;;;;;5259764;27;20171;-61
2021/06/07 07:37:42;;;;;;;1.50;0.80;;;26.50;53.40;;;;;;5261441;27;20108;-61
2021/06/07 07:40:14;;;;;;;1.87;0.83;;;25.30;55.10;;;;;;5259933;27;20138;-61
2021/06/07 07:42:42;;;;;;;2.40;0.90;;;24.40;56.10;;;;;;5259325;27;20498;-60
2021/06/07 07:45:10;;;;;;;1.77;0.90;;;24.50;58.30;;;;;;5259984;27;20425;-62
2021/06/07 07:47:38;;;;;;;2.53;1.10;;;24.00;60.80;;;;;;5262736;27;20111;-62
2021/06/07 07:50:06;;;;;;;3.53;0.90;;;25.10;59.60;;;;;;5259876;27;20115;-60
2021/06/07 07:52:33;;;;;;;3.97;0.90;;;27.00;56.10;;;;;;5260823;27;20149;-60
2021/06/07 07:55:00;;;;;;;3.22;1.05;;;29.80;53.10;;;;;;5261776;27;20122;-63
2021/06/07 07:57:27;;;;;;;1.30;0.82;;;30.80;49.00;;;;;;5261382;27;20116;-61
2021/06/07 07:59:54;;;;;;;1.75;0.70;;;31.10;47.40;;;;;;5262918;27;20538;-62
2021/06/07 08:02:21;;;;;;;2.20;1.10;;;35.80;46.40;;;;;;5261848;27;20118;-61
2021/06/07 08:04:47;;;;;;;2.47;0.90;;;41.10;36.80;;;;;;5241481;27;20149;-63
2021/06/07 08:07:14;;;;;;;2.17;0.93;;;45.10;33.30;;;;;;5262613;27;20161;-60
2021/06/07 08:09:42;;;;;;;1.85;1.00;;;47.20;30.60;;;;;;5262564;27;20108;-65
2021/06/07 08:12:13;;;;;;;3.95;1.25;;;48.60;29.60;;;;;;5261450;27;20161;-64
2021/06/07 08:14:39;;;;;;;1.77;0.90;;;49.30;28.80;;;;;;5262092;27;20134;-63
2021/06/07 08:17:05;;;;;;;6.30;1.33;;;50.70;28.20;;;;;;5261156;27;20106;-64
2021/06/07 08:19:32;;;;;;;4.15;0.98;;;50.40;27.80;;;;;;5261127;27;20123;-60
2021/06/07 08:21:58;;;;;;;3.75;1.10;;;50.40;27.60;;;;;;5262447;27;20116;-59
2021/06/07 08:24:25;;;;;;;1.73;1.10;;;50.80;27.20;;;;;;5261348;27;20563;-62
2021/06/07 08:26:51;;;;;;;5.55;1.50;;;51.60;26.80;;;;;;5261773;27;20114;-63
2021/06/07 08:29:19;;;;;;;2.17;1.30;;;51.70;27.30;;;;;;5261305;27;20431;-60
2021/06/07 08:31:45;;;;;;;2.37;1.37;;;50.20;26.80;;;;;;5261014;27;20122;-61
2021/06/07 08:34:12;;;;;;;1.77;1.10;;;48.30;27.00;;;;;;5261679;27;20524;-60
2021/06/07 08:36:38;;;;;;;2.72;1.48;;;50.00;27.30;;;;;;5260614;27;20445;-60
2021/06/07 08:39:08;;;;;;;4.62;1.58;;;50.30;27.10;;;;;;5261563;27;20108;-60
2021/06/07 08:41:38;;;;;;;2.50;1.30;;;51.60;26.90;;;;;;5260917;27;20107;-63
2021/06/07 08:44:08;;;;;;;3.05;1.42;;;52.20;27.10;;;;;;5261311;27;20122;-60
2021/06/07 08:46:36;;;;;;;3.33;1.45;;;52.30;26.60;;;;;;5260945;27;20160;-61
2021/06/07 08:49:02;;;;;;;4.70;1.75;;;52.10;27.00;;;;;;5261052;27;20108;-62
2021/06/07 08:51:29;;;;;;;3.90;1.55;;;52.30;26.50;;;;;;5260825;27;20130;-61
2021/06/07 08:53:55;;;;;;;2.60;1.42;;;52.20;26.40;;;;;;5262282;27;20419;-60
2021/06/07 08:56:22;;;;;;;2.75;1.58;;;53.10;26.30;;;;;;5260950;27;20152;-62
2021/06/07 08:58:48;;;;;;;4.93;1.80;;;50.60;25.90;;;;;;5259604;27;20122;-65
2021/06/07 09:01:24;;;;;;;3.12;1.67;;;48.80;26.70;;;;;;5257636;27;20456;-61
2021/06/07 09:04:12;;;;;;;2.10;1.58;;;48.40;27.00;;;;;;5257944;27;20212;-60
2021/06/07 09:06:44;;;;;;;3.95;1.58;;;49.20;26.50;;;;;;5257969;27;20187;-62
2021/06/07 09:09:12;;;;;;;3.25;1.10;;;49.30;26.70;;;;;;5258699;27;20463;-64
2021/06/07 09:11:47;;;;;;;8.00;1.73;;;47.10;27.70;;;;;;5260687;27;20482;-62
2021/06/07 09:14:21;;;;;;;2.83;1.40;;;47.30;27.30;;;;;;5261165;27;20615;-62
2021/06/07 09:16:48;;;;;;;3.92;1.30;;;49.30;26.80;;;;;;5261409;27;20137;-65
2021/06/07 09:19:24;;;;;;;3.87;1.10;;;50.00;26.50;;;;;;5260735;27;20466;-61
2021/06/07 09:21:52;;;;;;;3.80;1.42;;;50.40;26.80;;;;;;5261321;27;20123;-61
2021/06/07 09:24:19;;;;;;;3.60;2.20;;;50.90;26.30;;;;;;5260740;27;20153;-61
2021/06/07 09:26:49;;;;;;;3.62;1.60;;;50.50;26.10;;;;;;5260063;27;20423;-61
2021/06/07 09:29:36;;;;;;;2.15;1.50;;;50.50;26.70;;;;;;5261781;27;20458;-64
2021/06/07 09:32:06;;;;;;;2.92;1.45;;;50.40;26.70;;;;;;5260681;27;20424;-62
2021/06/07 09:34:35;;;;;;;2.92;1.85;;;50.80;26.30;;;;;;5261064;27;20107;-66
2021/06/07 09:37:08;;;;;;;2.50;1.40;;;50.20;26.50;;;;;;5260790;27;20106;-61
2021/06/07 09:39:35;;;;;;;3.75;1.90;;;50.00;26.10;;;;;;5260587;27;20150;-60
2021/06/07 09:42:08;;;;;;;2.33;1.40;;;48.40;26.40;;;;;;5260690;27;20138;-60
2021/06/07 09:44:41;;;;;;;3.37;1.48;;;47.90;26.90;;;;;;5260494;27;20161;-62
2021/06/07 09:47:13;;;;;;;3.50;1.73;;;47.60;27.30;;;;;;5260249;27;20103;-63
2021/06/07 09:49:43;;;;;;;1.95;1.33;;;38.70;29.90;;;;;;5261210;27;20108;-59
2021/06/07 09:52:12;;;;;;;3.78;1.70;;;40.00;31.30;;;;;;5260470;27;20111;-60
2021/06/07 09:54:39;;;;;;;3.45;2.15;;;37.20;30.90;;;;;;5262289;27;20149;-63
2021/06/07 09:57:06;;;;;;;2.95;1.80;;;33.80;33.70;;;;;;5260248;27;20118;-61
2021/06/07 09:59:34;;;;;;;3.00;1.80;;;30.70;37.00;;;;;;5260627;27;20134;-63
2021/06/07 10:02:03;;;;;;;5.68;2.17;;;29.00;38.70;;;;;;5260447;27;20539;-61
2021/06/07 10:04:51;;;;;;;2.58;1.73;;;27.90;40.30;;;;;;5260926;27;20108;-61
2021/06/07 10:07:20;;;;;;;5.85;2.10;;;27.10;41.90;;;;;;5262609;27;20515;-65
2021/06/07 10:10:09;;;;;;;3.15;1.90;;;26.40;42.10;;;;;;5260634;27;20107;-62
2021/06/07 10:12:36;;;;;;;4.97;2.03;;;25.70;43.10;;;;;;5261281;27;20427;-63
2021/06/07 10:15:03;;;;;;;15.80;3.30;;;25.50;44.10;;;;;;5259943;27;20145;-63
2021/06/07 10:17:30;;;;;;;20.83;3.30;;;25.20;44.90;;;;;;5260808;27;20103;-63
2021/06/07 10:22:41;;;;;;;7.17;2.20;;;24.50;47.10;;;;;;5194726;27;20537;-62
2021/06/07 10:25:09;;;;;;;3.47;2.17;;;24.20;47.50;;;;;;5193108;27;20521;-62
2021/06/07 10:27:36;;;;;;;2.33;1.80;;;23.50;49.10;;;;;;5193646;27;20128;-62
2021/06/07 10:30:12;;;;;;;5.97;1.80;;;24.00;49.00;;;;;;5193729;27;20113;-62
2021/06/07 10:32:44;;;;;;;3.53;2.15;;;24.10;48.20;;;;;;5195401;27;20112;-60
2021/06/07 10:35:13;;;;;;;3.47;2.13;;;24.20;47.50;;;;;;5196133;27;20572;-64
2021/06/07 10:38:08;;;;;;;2.70;2.03;;;24.20;47.90;;;;;;5194508;27;20104;-62
2021/06/07 10:40:36;;;;;;;6.18;2.03;;;24.00;48.10;;;;;;5193710;27;20159;-62
2021/06/07 10:43:04;;;;;;;3.10;1.95;;;24.10;48.80;;;;;;5193057;27;20456;-61
2021/06/07 10:45:33;;;;;;;3.17;2.30;;;24.20;49.40;;;;;;5193545;27;20204;-63
2021/06/07 10:48:00;;;;;;;6.15;2.00;;;24.30;49.40;;;;;;5193665;27;20143;-61
2021/06/07 10:50:37;;;;;;;3.33;2.13;;;24.30;49.60;;;;;;5193731;27;20128;-62
2021/06/07 10:53:06;;;;;;;2.80;2.30;;;24.30;50.20;;;;;;5193534;27;20131;-62
2021/06/07 10:55:35;;;;;;;3.92;2.50;;;24.30;49.20;;;;;;5193793;27;20105;-62
2021/06/07 10:58:03;;;;;;;4.78;2.70;;;24.40;49.80;;;;;;5194722;27;20122;-62
2021/06/07 11:00:35;;;;;;;4.37;2.35;;;24.40;50.10;;;;;;5245724;27;20131;-61
2021/06/07 11:03:04;;;;;;;5.80;2.70;;;24.60;50.00;;;;;;5260948;27;20543;-62
2021/06/07 11:05:33;;;;;;;5.85;2.42;;;24.60;49.00;;;;;;5261097;27;20112;-63
2021/06/07 11:08:04;;;;;;;7.95;2.55;;;24.50;50.30;;;;;;5260368;27;20122;-64
2021/06/07 11:10:32;;;;;;;6.47;2.30;;;24.30;50.70;;;;;;5260133;27;20123;-62
2021/06/07 11:13:01;;;;;;;6.75;2.60;;;24.40;51.30;;;;;;5259906;27;20103;-62
2021/06/07 11:15:29;;;;;;;4.30;1.95;;;24.50;50.70;;;;;;5259940;27;20114;-65
2021/06/07 11:18:22;;;;;;;4.32;2.85;;;24.60;52.00;;;;;;5259559;27;20130;-60
2021/06/07 11:20:52;;;;;;;3.17;2.55;;;24.50;51.80;;;;;;5260282;27;20103;-64
2021/06/07 11:23:21;;;;;;;3.90;2.25;;;24.50;50.50;;;;;;5260556;27;20107;-63
2021/06/07 11:25:51;;;;;;;3.75;2.33;;;24.50;51.50;;;;;;5261930;27;20131;-62
2021/06/07 11:29:06;;;;;;;4.53;2.22;;;24.50;51.20;;;;;;5261356;27;20294;-61
2021/06/07 11:31:48;;;;;;;6.03;2.40;;;24.50;50.90;;;;;;5261038;27;20502;-61
2021/06/07 11:34:18;;;;;;;5.97;2.50;;;24.40;50.30;;;;;;5261470;27;20135;-62
2021/06/07 11:36:56;;;;;;;4.93;2.70;;;24.30;50.70;;;;;;5261605;27;20214;-61
2021/06/07 11:39:24;;;;;;;3.67;2.17;;;24.20;50.90;;;;;;5262884;27;20153;-64
2021/06/07 11:41:53;;;;;;;2.58;2.20;;;24.10;52.70;;;;;;5261487;27;20149;-62
2021/06/07 11:44:40;;;;;;;3.55;1.95;;;24.20;52.00;;;;;;5261599;27;20119;-61
2021/06/07 11:47:06;;;;;;;4.50;2.20;;;24.40;51.90;;;;;;5262380;27;20123;-62
2021/06/07 11:49:32;;;;;;;3.72;2.00;;;24.40;51.70;;;;;;5263227;27;20130;-64
2021/06/07 11:52:12;;;;;;;4.68;2.35;;;24.30;52.10;;;;;;5261028;27;20122;-61
2021/06/07 11:54:50;;;;;;;3.70;1.95;;;24.30;51.10;;;;;;5261521;27;20107;-61
2021/06/07 11:57:19;;;;;;;2.95;2.10;;;24.10;52.10;;;;;;5261222;27;20111;-62
2021/06/07 11:59:52;;;;;;;4.72;2.65;;;24.00;52.60;;;;;;5261962;27;20634;-64
2021/06/07 12:02:19;;;;;;;3.40;1.80;;;24.00;52.30;;;;;;5263012;27;20415;-61
2021/06/07 12:04:47;;;;;;;3.75;2.28;;;24.00;53.00;;;;;;5262544;27;20503;-62
2021/06/07 12:07:16;;;;;;;3.15;2.53;;;24.10;51.90;;;;;;5262485;27;20138;-62
2021/06/07 12:09:47;;;;;;;5.80;2.30;;;23.90;51.30;;;;;;5261143;27;20127;-61
2021/06/07 12:12:14;;;;;;;4.75;2.00;;;23.60;52.80;;;;;;5261342;27;20139;-61
2021/06/07 12:14:44;;;;;;;5.12;2.95;;;23.70;53.50;;;;;;5261156;27;20115;-62
2021/06/07 12:17:16;;;;;;;5.70;2.25;;;23.80;52.20;;;;;;5263508;27;20167;-61
2021/06/07 12:19:43;;;;;;;5.47;2.57;;;23.80;53.60;;;;;;5262225;27;20451;-62
2021/06/07 12:22:35;;;;;;;7.57;1.90;;;23.60;52.10;;;;;;5260528;27;20161;-61
2021/06/07 12:25:18;;;;;;;1.87;1.67;;;23.80;52.20;;;;;;5262962;27;20107;-61
2021/06/07 12:30:31;;;;;;;4.47;2.00;;;23.80;52.70;;;;;;5261568;27;20155;-62
2021/06/07 12:32:58;;;;;;;5.60;2.20;;;23.20;53.60;;;;;;5261028;27;20515;-62
2021/06/07 12:35:25;;;;;;;6.47;1.50;;;23.40;53.40;;;;;;5261328;27;20147;-66
2021/06/07 12:37:55;;;;;;;5.70;2.00;;;23.50;53.40;;;;;;5260266;27;20123;-62
2021/06/07 12:40:33;;;;;;;2.70;1.70;;;23.70;53.30;;;;;;5261709;27;20107;-63
2021/06/07 12:43:11;;;;;;;3.55;1.70;;;23.90;53.70;;;;;;5261633;27;20107;-62
2021/06/07 12:45:40;;;;;;;3.53;2.15;;;24.10;53.50;;;;;;5261044;27;20146;-61
2021/06/07 12:48:12;;;;;;;5.93;2.13;;;24.10;52.30;;;;;;5263125;27;20108;-61
2021/06/07 12:50:39;;;;;;;3.87;1.90;;;24.00;53.70;;;;;;5260583;27;20111;-61
2021/06/07 12:53:07;;;;;;;5.90;1.92;;;24.10;53.70;;;;;;5261448;27;20150;-61
2021/06/07 12:55:35;;;;;;;3.62;1.90;;;24.00;53.10;;;;;;5262351;27;20107;-62
2021/06/07 12:58:07;;;;;;;2.85;1.60;;;24.10;52.90;;;;;;5260523;27;20107;-64
2021/06/07 13:00:37;;;;;;;4.37;1.45;;;24.00;52.80;;;;;;5261451;27;20150;-62
2021/06/07 13:03:16;;;;;;;3.30;1.73;;;24.00;53.80;;;;;;5262218;27;20108;-64